sensor_id;sensor_type;location;lat;lon;timestamp;temperature;humidity
51841;DHT22;37888;53.246;6.658;2023-09-12T00:01:31;19.70;99.90
51841;DHT22;37888;53.246;6.658;2023-09-12T00:04:00;19.70;99.90
51841;DHT22;37888;53.246;6.658;2023-09-12T00:06:26;19.70;99.90
51841;DHT22;37888;53.246;6.658;2023-09-12T00:08:52;19.80;99.90
51841;DHT22;37888;53.246;6.658;2023-09-12T00:11:18;19.80;99.90
51841;DHT22;37888;53.246;6.658;2023-09-12T00:13:44;19.80;99.90
51841;DHT22;37888;53.246;6.658;2023-09-12T00:16:10;19.80;99.90
51841;DHT22;37888;53.246;6.658;2023-09-12T00:18:37;19.80;99.90
51841;DHT22;37888;53.246;6.658;2023-09-12T00:21:02;19.80;99.90
51841;DHT22;37888;53.246;6.658;2023-09-12T00:23:29;19.80;99.90
51841;DHT22;37888;53.246;6.658;2023-09-12T00:25:54;19.80;99.90
51841;DHT22;37888;53.246;6.658;2023-09-12T00:28:21;19.80;99.90
51841;DHT22;37888;53.246;6.658;2023-09-12T00:30:47;19.80;99.90
51841;DHT22;37888;53.246;6.658;2023-09-12T00:33:13;19.80;99.90
51841;DHT22;37888;53.246;6.658;2023-09-12T00:35:39;19.80;99.90
51841;DHT22;37888;53.246;6.658;2023-09-12T00:38:04;19.80;99.90
51841;DHT22;37888;53.246;6.658;2023-09-12T00:40:32;19.80;99.90
51841;DHT22;37888;53.246;6.658;2023-09-12T00:42:58;19.80;99.90
51841;DHT22;37888;53.246;6.658;2023-09-12T00:45:25;19.80;99.90
51841;DHT22;37888;53.246;6.658;2023-09-12T00:47:51;19.80;99.90
51841;DHT22;37888;53.246;6.658;2023-09-12T00:50:19;19.80;99.90
51841;DHT22;37888;53.246;6.658;2023-09-12T00:52:47;19.80;99.90
51841;DHT22;37888;53.246;6.658;2023-09-12T00:55:13;19.70;99.90
51841;DHT22;37888;53.246;6.658;2023-09-12T00:57:39;19.70;99.90
51841;DHT22;37888;53.246;6.658;2023-09-12T01:00:06;19.70;99.90
51841;DHT22;37888;53.246;6.658;2023-09-12T01:02:46;19.70;99.90
51841;DHT22;37888;53.246;6.658;2023-09-12T01:05:14;19.70;99.90
51841;DHT22;37888;53.246;6.658;2023-09-12T01:07:41;19.60;99.90
51841;DHT22;37888;53.246;6.658;2023-09-12T01:10:08;19.60;99.90
51841;DHT22;37888;53.246;6.658;2023-09-12T01:12:34;19.60;99.90
51841;DHT22;37888;53.246;6.658;2023-09-12T01:15:00;19.60;99.90
51841;DHT22;37888;53.246;6.658;2023-09-12T01:17:27;19.60;99.90
51841;DHT22;37888;53.246;6.658;2023-09-12T01:19:53;19.60;99.90
51841;DHT22;37888;53.246;6.658;2023-09-12T01:22:53;19.60;99.90
51841;DHT22;37888;53.246;6.658;2023-09-12T01:27:48;19.50;99.90
51841;DHT22;37888;53.246;6.658;2023-09-12T01:30:18;19.50;99.90
51841;DHT22;37888;53.246;6.658;2023-09-12T01:32:46;19.50;99.90
51841;DHT22;37888;53.246;6.658;2023-09-12T01:35:12;19.50;99.90
51841;DHT22;37888;53.246;6.658;2023-09-12T01:37:39;19.50;99.90
51841;DHT22;37888;53.246;6.658;2023-09-12T01:40:05;19.50;99.90
51841;DHT22;37888;53.246;6.658;2023-09-12T01:42:43;19.50;99.90
51841;DHT22;37888;53.246;6.658;2023-09-12T01:45:11;19.50;99.90
51841;DHT22;37888;53.246;6.658;2023-09-12T01:47:39;19.50;99.90
51841;DHT22;37888;53.246;6.658;2023-09-12T01:50:06;19.40;99.90
51841;DHT22;37888;53.246;6.658;2023-09-12T01:52:32;19.40;99.90
51841;DHT22;37888;53.246;6.658;2023-09-12T01:54:59;19.40;99.90
51841;DHT22;37888;53.246;6.658;2023-09-12T01:57:25;19.40;99.90
51841;DHT22;37888;53.246;6.658;2023-09-12T01:59:51;19.40;99.90
51841;DHT22;37888;53.246;6.658;2023-09-12T02:02:17;19.40;99.90
51841;DHT22;37888;53.246;6.658;2023-09-12T02:07:57;19.40;99.90
51841;DHT22;37888;53.246;6.658;2023-09-12T02:10:24;19.30;99.90
51841;DHT22;37888;53.246;6.658;2023-09-12T02:12:50;19.30;99.90
51841;DHT22;37888;53.246;6.658;2023-09-12T02:15:16;19.30;99.90
51841;DHT22;37888;53.246;6.658;2023-09-12T02:17:41;19.30;99.90
51841;DHT22;37888;53.246;6.658;2023-09-12T02:20:08;19.30;99.90
51841;DHT22;37888;53.246;6.658;2023-09-12T02:22:35;19.30;99.90
51841;DHT22;37888;53.246;6.658;2023-09-12T02:25:01;19.20;99.90
51841;DHT22;37888;53.246;6.658;2023-09-12T02:27:27;19.20;99.90
51841;DHT22;37888;53.246;6.658;2023-09-12T02:29:53;19.10;99.90
51841;DHT22;37888;53.246;6.658;2023-09-12T02:32:19;19.10;99.90
51841;DHT22;37888;53.246;6.658;2023-09-12T02:34:44;19.10;99.90
51841;DHT22;37888;53.246;6.658;2023-09-12T02:49:24;18.90;99.90
51841;DHT22;37888;53.246;6.658;2023-09-12T02:51:49;18.90;99.90
51841;DHT22;37888;53.246;6.658;2023-09-12T02:54:15;18.80;99.90
51841;DHT22;37888;53.246;6.658;2023-09-12T02:56:41;18.80;99.90
51841;DHT22;37888;53.246;6.658;2023-09-12T02:59:07;18.90;99.90
51841;DHT22;37888;53.246;6.658;2023-09-12T03:01:33;18.80;99.90
51841;DHT22;37888;53.246;6.658;2023-09-12T03:03:58;18.80;99.90
51841;DHT22;37888;53.246;6.658;2023-09-12T03:06:24;18.80;99.90
51841;DHT22;37888;53.246;6.658;2023-09-12T03:08:50;18.90;99.90
51841;DHT22;37888;53.246;6.658;2023-09-12T03:11:15;18.90;99.90
51841;DHT22;37888;53.246;6.658;2023-09-12T03:13:41;18.90;99.90
51841;DHT22;37888;53.246;6.658;2023-09-12T03:16:14;18.90;99.90
51841;DHT22;37888;53.246;6.658;2023-09-12T03:18:40;18.90;99.90
51841;DHT22;37888;53.246;6.658;2023-09-12T03:21:06;18.90;99.90
51841;DHT22;37888;53.246;6.658;2023-09-12T03:23:32;18.90;99.90
51841;DHT22;37888;53.246;6.658;2023-09-12T03:26:06;18.90;99.90
51841;DHT22;37888;53.246;6.658;2023-09-12T03:28:32;18.90;99.90
51841;DHT22;37888;53.246;6.658;2023-09-12T03:31:09;18.90;99.90
51841;DHT22;37888;53.246;6.658;2023-09-12T03:33:39;18.90;99.90
51841;DHT22;37888;53.246;6.658;2023-09-12T03:36:06;18.90;99.90
51841;DHT22;37888;53.246;6.658;2023-09-12T03:38:33;18.90;99.90
51841;DHT22;37888;53.246;6.658;2023-09-12T03:40:59;18.90;99.90
51841;DHT22;37888;53.246;6.658;2023-09-12T03:43:25;18.90;99.90
51841;DHT22;37888;53.246;6.658;2023-09-12T03:45:50;18.90;99.90
51841;DHT22;37888;53.246;6.658;2023-09-12T03:48:16;18.90;99.90
51841;DHT22;37888;53.246;6.658;2023-09-12T03:50:42;18.80;99.90
51841;DHT22;37888;53.246;6.658;2023-09-12T03:53:09;18.90;99.90
51841;DHT22;37888;53.246;6.658;2023-09-12T03:55:34;18.90;99.90
51841;DHT22;37888;53.246;6.658;2023-09-12T03:58:00;18.90;99.90
51841;DHT22;37888;53.246;6.658;2023-09-12T04:00:26;18.90;99.90
51841;DHT22;37888;53.246;6.658;2023-09-12T04:02:51;18.90;99.90
51841;DHT22;37888;53.246;6.658;2023-09-12T04:05:17;18.90;99.90
51841;DHT22;37888;53.246;6.658;2023-09-12T04:07:43;18.90;99.90
51841;DHT22;37888;53.246;6.658;2023-09-12T04:10:09;18.80;99.90
51841;DHT22;37888;53.246;6.658;2023-09-12T04:12:35;18.90;99.90
51841;DHT22;37888;53.246;6.658;2023-09-12T04:15:00;18.80;99.90
51841;DHT22;37888;53.246;6.658;2023-09-12T04:17:26;18.80;99.90
51841;DHT22;37888;53.246;6.658;2023-09-12T04:19:52;18.70;99.90
51841;DHT22;37888;53.246;6.658;2023-09-12T04:22:17;18.70;99.90
51841;DHT22;37888;53.246;6.658;2023-09-12T04:24:43;18.70;99.90
51841;DHT22;37888;53.246;6.658;2023-09-12T04:27:09;18.60;99.90
51841;DHT22;37888;53.246;6.658;2023-09-12T04:29:35;18.60;99.90
51841;DHT22;37888;53.246;6.658;2023-09-12T04:32:02;18.60;99.90
51841;DHT22;37888;53.246;6.658;2023-09-12T04:34:29;18.60;99.90
51841;DHT22;37888;53.246;6.658;2023-09-12T04:36:55;18.50;99.90
51841;DHT22;37888;53.246;6.658;2023-09-12T04:39:20;18.50;99.90
51841;DHT22;37888;53.246;6.658;2023-09-12T04:41:46;18.50;99.90
51841;DHT22;37888;53.246;6.658;2023-09-12T04:44:12;18.50;99.90
51841;DHT22;37888;53.246;6.658;2023-09-12T04:46:38;18.50;99.90
51841;DHT22;37888;53.246;6.658;2023-09-12T04:49:04;18.40;99.90
51841;DHT22;37888;53.246;6.658;2023-09-12T04:53:55;18.30;99.90
51841;DHT22;37888;53.246;6.658;2023-09-12T04:56:22;18.30;99.90
51841;DHT22;37888;53.246;6.658;2023-09-12T04:58:50;18.30;99.90
51841;DHT22;37888;53.246;6.658;2023-09-12T05:01:16;18.30;99.90
51841;DHT22;37888;53.246;6.658;2023-09-12T05:03:45;18.20;99.90
51841;DHT22;37888;53.246;6.658;2023-09-12T05:06:12;18.30;99.90
51841;DHT22;37888;53.246;6.658;2023-09-12T05:08:38;18.20;99.90
51841;DHT22;37888;53.246;6.658;2023-09-12T05:11:04;18.10;99.90
51841;DHT22;37888;53.246;6.658;2023-09-12T05:13:30;18.20;99.90
51841;DHT22;37888;53.246;6.658;2023-09-12T05:15:56;18.20;99.90
51841;DHT22;37888;53.246;6.658;2023-09-12T05:18:22;18.20;99.90
51841;DHT22;37888;53.246;6.658;2023-09-12T05:20:48;18.10;99.90
51841;DHT22;37888;53.246;6.658;2023-09-12T05:23:15;18.10;99.90
51841;DHT22;37888;53.246;6.658;2023-09-12T05:25:40;18.10;99.90
51841;DHT22;37888;53.246;6.658;2023-09-12T05:28:06;18.10;99.90
51841;DHT22;37888;53.246;6.658;2023-09-12T05:30:32;18.10;99.90
51841;DHT22;37888;53.246;6.658;2023-09-12T05:32:58;18.10;99.90
51841;DHT22;37888;53.246;6.658;2023-09-12T05:35:24;18.10;99.90
51841;DHT22;37888;53.246;6.658;2023-09-12T05:37:50;18.10;99.90
51841;DHT22;37888;53.246;6.658;2023-09-12T05:40:17;18.10;99.90
51841;DHT22;37888;53.246;6.658;2023-09-12T05:42:43;18.10;99.90
51841;DHT22;37888;53.246;6.658;2023-09-12T05:45:09;18.10;99.90
51841;DHT22;37888;53.246;6.658;2023-09-12T05:47:34;18.10;99.90
51841;DHT22;37888;53.246;6.658;2023-09-12T05:50:00;18.10;99.90
51841;DHT22;37888;53.246;6.658;2023-09-12T05:52:26;18.10;99.90
51841;DHT22;37888;53.246;6.658;2023-09-12T05:54:52;18.10;99.90
51841;DHT22;37888;53.246;6.658;2023-09-12T05:57:17;18.20;99.90
51841;DHT22;37888;53.246;6.658;2023-09-12T05:59:43;18.10;99.90
51841;DHT22;37888;53.246;6.658;2023-09-12T06:02:09;18.20;99.90
51841;DHT22;37888;53.246;6.658;2023-09-12T06:04:35;18.20;99.90
51841;DHT22;37888;53.246;6.658;2023-09-12T06:07:04;18.30;99.90
51841;DHT22;37888;53.246;6.658;2023-09-12T06:09:30;18.30;99.90
51841;DHT22;37888;53.246;6.658;2023-09-12T06:11:56;18.30;99.90
51841;DHT22;37888;53.246;6.658;2023-09-12T06:14:22;18.30;99.90
51841;DHT22;37888;53.246;6.658;2023-09-12T06:16:48;18.30;99.90
51841;DHT22;37888;53.246;6.658;2023-09-12T06:19:14;18.40;99.90
51841;DHT22;37888;53.246;6.658;2023-09-12T06:21:40;18.40;99.90
51841;DHT22;37888;53.246;6.658;2023-09-12T06:24:10;18.40;99.90
51841;DHT22;37888;53.246;6.658;2023-09-12T06:26:37;18.40;99.90
51841;DHT22;37888;53.246;6.658;2023-09-12T06:29:03;18.40;99.90
51841;DHT22;37888;53.246;6.658;2023-09-12T06:31:30;17.90;99.90
51841;DHT22;37888;53.246;6.658;2023-09-12T06:33:56;18.50;99.90
51841;DHT22;37888;53.246;6.658;2023-09-12T06:36:26;18.50;99.90
51841;DHT22;37888;53.246;6.658;2023-09-12T06:38:52;18.50;99.90
51841;DHT22;37888;53.246;6.658;2023-09-12T06:41:19;18.50;99.90
51841;DHT22;37888;53.246;6.658;2023-09-12T06:43:45;18.50;99.90
51841;DHT22;37888;53.246;6.658;2023-09-12T06:46:10;18.50;99.90
51841;DHT22;37888;53.246;6.658;2023-09-12T06:48:36;18.50;99.90
51841;DHT22;37888;53.246;6.658;2023-09-12T06:51:05;18.50;99.90
51841;DHT22;37888;53.246;6.658;2023-09-12T06:53:31;18.50;99.90
51841;DHT22;37888;53.246;6.658;2023-09-12T06:55:57;18.50;99.90
51841;DHT22;37888;53.246;6.658;2023-09-12T06:58:25;18.50;99.90
51841;DHT22;37888;53.246;6.658;2023-09-12T07:00:51;18.60;99.90
51841;DHT22;37888;53.246;6.658;2023-09-12T07:03:17;18.60;99.90
51841;DHT22;37888;53.246;6.658;2023-09-12T07:05:43;18.60;99.90
51841;DHT22;37888;53.246;6.658;2023-09-12T07:08:09;18.60;99.90
51841;DHT22;37888;53.246;6.658;2023-09-12T07:10:35;18.70;99.90
51841;DHT22;37888;53.246;6.658;2023-09-12T07:13:02;18.70;99.90
51841;DHT22;37888;53.246;6.658;2023-09-12T07:15:28;18.80;99.90
51841;DHT22;37888;53.246;6.658;2023-09-12T07:17:54;18.70;99.90
51841;DHT22;37888;53.246;6.658;2023-09-12T07:20:21;18.80;99.90
51841;DHT22;37888;53.246;6.658;2023-09-12T07:22:47;18.80;99.90
51841;DHT22;37888;53.246;6.658;2023-09-12T07:25:14;18.90;99.90
51841;DHT22;37888;53.246;6.658;2023-09-12T07:27:40;18.90;99.90
51841;DHT22;37888;53.246;6.658;2023-09-12T07:30:07;19.00;99.90
51841;DHT22;37888;53.246;6.658;2023-09-12T07:32:33;19.10;99.90
51841;DHT22;37888;53.246;6.658;2023-09-12T07:34:59;19.20;99.90
51841;DHT22;37888;53.246;6.658;2023-09-12T07:37:24;19.30;99.90
51841;DHT22;37888;53.246;6.658;2023-09-12T07:39:50;19.40;99.90
51841;DHT22;37888;53.246;6.658;2023-09-12T07:42:16;19.40;99.90
51841;DHT22;37888;53.246;6.658;2023-09-12T07:44:47;19.60;99.90
51841;DHT22;37888;53.246;6.658;2023-09-12T07:47:13;19.80;99.90
51841;DHT22;37888;53.246;6.658;2023-09-12T07:49:40;19.80;99.90
51841;DHT22;37888;53.246;6.658;2023-09-12T07:52:06;19.90;99.90
51841;DHT22;37888;53.246;6.658;2023-09-12T07:54:31;20.00;99.90
51841;DHT22;37888;53.246;6.658;2023-09-12T07:56:57;20.10;99.90
51841;DHT22;37888;53.246;6.658;2023-09-12T07:59:23;20.30;99.90
51841;DHT22;37888;53.246;6.658;2023-09-12T08:01:48;20.40;99.90
51841;DHT22;37888;53.246;6.658;2023-09-12T08:04:14;20.40;99.90
51841;DHT22;37888;53.246;6.658;2023-09-12T08:06:40;20.40;99.90
51841;DHT22;37888;53.246;6.658;2023-09-12T08:09:07;20.40;99.90
51841;DHT22;37888;53.246;6.658;2023-09-12T08:11:33;20.30;99.90
51841;DHT22;37888;53.246;6.658;2023-09-12T08:13:59;20.20;99.90
51841;DHT22;37888;53.246;6.658;2023-09-12T08:16:25;20.20;99.90
51841;DHT22;37888;53.246;6.658;2023-09-12T08:18:50;20.10;99.90
51841;DHT22;37888;53.246;6.658;2023-09-12T08:21:16;20.10;99.90
51841;DHT22;37888;53.246;6.658;2023-09-12T08:23:42;20.10;99.90
51841;DHT22;37888;53.246;6.658;2023-09-12T08:26:07;20.10;99.90
51841;DHT22;37888;53.246;6.658;2023-09-12T08:28:34;20.20;99.90
51841;DHT22;37888;53.246;6.658;2023-09-12T08:31:00;20.40;99.90
51841;DHT22;37888;53.246;6.658;2023-09-12T08:35:52;20.80;99.90
51841;DHT22;37888;53.246;6.658;2023-09-12T08:38:18;20.80;99.90
51841;DHT22;37888;53.246;6.658;2023-09-12T08:40:50;20.80;99.90
51841;DHT22;37888;53.246;6.658;2023-09-12T08:43:16;20.80;99.90
51841;DHT22;37888;53.246;6.658;2023-09-12T08:45:42;20.80;99.90
51841;DHT22;37888;53.246;6.658;2023-09-12T08:48:11;20.80;99.90
51841;DHT22;37888;53.246;6.658;2023-09-12T08:50:38;20.80;99.90
51841;DHT22;37888;53.246;6.658;2023-09-12T08:53:04;20.80;99.90
51841;DHT22;37888;53.246;6.658;2023-09-12T08:55:31;20.80;99.90
51841;DHT22;37888;53.246;6.658;2023-09-12T08:58:02;20.90;99.90
51841;DHT22;37888;53.246;6.658;2023-09-12T09:00:29;20.90;99.90
51841;DHT22;37888;53.246;6.658;2023-09-12T09:02:56;21.00;99.90
51841;DHT22;37888;53.246;6.658;2023-09-12T09:05:22;20.90;99.90
51841;DHT22;37888;53.246;6.658;2023-09-12T09:07:49;20.80;99.90
51841;DHT22;37888;53.246;6.658;2023-09-12T09:10:17;20.80;99.90
51841;DHT22;37888;53.246;6.658;2023-09-12T09:12:44;20.80;99.90
51841;DHT22;37888;53.246;6.658;2023-09-12T09:15:28;20.80;99.90
51841;DHT22;37888;53.246;6.658;2023-09-12T09:17:56;20.80;99.90
51841;DHT22;37888;53.246;6.658;2023-09-12T09:20:32;20.90;99.90
51841;DHT22;37888;53.246;6.658;2023-09-12T09:23:03;20.90;99.90
51841;DHT22;37888;53.246;6.658;2023-09-12T09:25:35;21.10;99.90
51841;DHT22;37888;53.246;6.658;2023-09-12T09:28:05;21.10;99.90
51841;DHT22;37888;53.246;6.658;2023-09-12T09:33:07;21.30;99.90
51841;DHT22;37888;53.246;6.658;2023-09-12T09:35:33;21.90;99.90
51841;DHT22;37888;53.246;6.658;2023-09-12T09:37:58;21.50;99.90
51841;DHT22;37888;53.246;6.658;2023-09-12T09:40:24;21.30;99.90
51841;DHT22;37888;53.246;6.658;2023-09-12T09:42:55;21.30;99.90
51841;DHT22;37888;53.246;6.658;2023-09-12T09:45:21;22.00;99.90
51841;DHT22;37888;53.246;6.658;2023-09-12T09:47:49;21.70;99.90
51841;DHT22;37888;53.246;6.658;2023-09-12T09:50:16;21.40;99.90
51841;DHT22;37888;53.246;6.658;2023-09-12T09:52:43;21.50;99.90
51841;DHT22;37888;53.246;6.658;2023-09-12T09:55:19;22.10;99.90
51841;DHT22;37888;53.246;6.658;2023-09-12T09:57:45;21.90;99.90
51841;DHT22;37888;53.246;6.658;2023-09-12T10:00:11;21.90;99.90
51841;DHT22;37888;53.246;6.658;2023-09-12T10:02:41;21.70;99.90
51841;DHT22;37888;53.246;6.658;2023-09-12T10:05:09;21.90;99.90
51841;DHT22;37888;53.246;6.658;2023-09-12T10:10:04;22.10;99.90
51841;DHT22;37888;53.246;6.658;2023-09-12T10:12:31;22.10;99.90
51841;DHT22;37888;53.246;6.658;2023-09-12T10:15:00;22.20;99.90
51841;DHT22;37888;53.246;6.658;2023-09-12T10:17:36;22.20;99.90
51841;DHT22;37888;53.246;6.658;2023-09-12T10:20:03;22.30;99.90
51841;DHT22;37888;53.246;6.658;2023-09-12T10:22:56;22.30;99.90
51841;DHT22;37888;53.246;6.658;2023-09-12T10:25:25;22.30;99.90
51841;DHT22;37888;53.246;6.658;2023-09-12T10:27:54;22.30;99.90
51841;DHT22;37888;53.246;6.658;2023-09-12T10:30:24;22.30;99.90
51841;DHT22;37888;53.246;6.658;2023-09-12T10:32:51;22.20;99.90
51841;DHT22;37888;53.246;6.658;2023-09-12T10:35:17;22.30;99.90
51841;DHT22;37888;53.246;6.658;2023-09-12T10:37:46;22.40;99.90
51841;DHT22;37888;53.246;6.658;2023-09-12T10:40:14;22.50;99.90
51841;DHT22;37888;53.246;6.658;2023-09-12T10:42:42;22.60;99.90
51841;DHT22;37888;53.246;6.658;2023-09-12T10:45:09;22.70;99.90
51841;DHT22;37888;53.246;6.658;2023-09-12T10:47:36;22.60;99.90
51841;DHT22;37888;53.246;6.658;2023-09-12T10:50:02;22.70;99.90
51841;DHT22;37888;53.246;6.658;2023-09-12T10:52:29;22.70;99.90
51841;DHT22;37888;53.246;6.658;2023-09-12T10:54:55;22.60;99.90
51841;DHT22;37888;53.246;6.658;2023-09-12T10:57:21;22.80;99.90
51841;DHT22;37888;53.246;6.658;2023-09-12T11:02:30;22.90;99.90
51841;DHT22;37888;53.246;6.658;2023-09-12T11:04:56;23.00;99.90
51841;DHT22;37888;53.246;6.658;2023-09-12T11:12:47;23.20;99.90
51841;DHT22;37888;53.246;6.658;2023-09-12T11:15:14;23.30;99.90
51841;DHT22;37888;53.246;6.658;2023-09-12T11:18:04;23.40;99.90
51841;DHT22;37888;53.246;6.658;2023-09-12T11:20:53;23.50;99.90
51841;DHT22;37888;53.246;6.658;2023-09-12T11:23:24;23.60;99.90
51841;DHT22;37888;53.246;6.658;2023-09-12T11:26:07;23.60;99.90
51841;DHT22;37888;53.246;6.658;2023-09-12T11:28:33;23.70;99.90
51841;DHT22;37888;53.246;6.658;2023-09-12T11:30:59;23.70;99.90
51841;DHT22;37888;53.246;6.658;2023-09-12T11:33:26;23.70;99.90
51841;DHT22;37888;53.246;6.658;2023-09-12T11:35:55;23.60;99.90
51841;DHT22;37888;53.246;6.658;2023-09-12T11:38:30;23.50;99.90
51841;DHT22;37888;53.246;6.658;2023-09-12T11:40:57;23.50;99.90
51841;DHT22;37888;53.246;6.658;2023-09-12T11:43:24;23.60;99.90
51841;DHT22;37888;53.246;6.658;2023-09-12T11:45:50;23.70;99.90
51841;DHT22;37888;53.246;6.658;2023-09-12T11:48:19;23.70;99.90
51841;DHT22;37888;53.246;6.658;2023-09-12T11:50:53;23.80;99.90
51841;DHT22;37888;53.246;6.658;2023-09-12T11:53:25;23.90;99.90
51841;DHT22;37888;53.246;6.658;2023-09-12T11:55:58;24.00;99.90
51841;DHT22;37888;53.246;6.658;2023-09-12T11:58:25;24.00;99.90
51841;DHT22;37888;53.246;6.658;2023-09-12T12:00:55;24.10;99.90
51841;DHT22;37888;53.246;6.658;2023-09-12T12:03:25;24.30;99.90
51841;DHT22;37888;53.246;6.658;2023-09-12T12:05:52;24.40;99.90
51841;DHT22;37888;53.246;6.658;2023-09-12T12:08:19;24.50;99.90
51841;DHT22;37888;53.246;6.658;2023-09-12T12:10:50;24.50;99.90
51841;DHT22;37888;53.246;6.658;2023-09-12T12:13:20;24.40;99.90
51841;DHT22;37888;53.246;6.658;2023-09-12T12:15:46;24.30;99.90
51841;DHT22;37888;53.246;6.658;2023-09-12T12:18:12;24.20;99.90
51841;DHT22;37888;53.246;6.658;2023-09-12T12:20:38;24.10;99.90
51841;DHT22;37888;53.246;6.658;2023-09-12T12:23:04;24.00;99.90
51841;DHT22;37888;53.246;6.658;2023-09-12T12:25:33;24.00;99.90
51841;DHT22;37888;53.246;6.658;2023-09-12T12:28:00;23.90;99.90
51841;DHT22;37888;53.246;6.658;2023-09-12T12:30:33;23.90;99.90
51841;DHT22;37888;53.246;6.658;2023-09-12T12:33:01;23.90;99.90
51841;DHT22;37888;53.246;6.658;2023-09-12T12:35:28;24.00;99.90
51841;DHT22;37888;53.246;6.658;2023-09-12T12:37:55;23.90;99.90
51841;DHT22;37888;53.246;6.658;2023-09-12T12:40:23;23.90;99.90
51841;DHT22;37888;53.246;6.658;2023-09-12T12:42:50;23.90;99.90
51841;DHT22;37888;53.246;6.658;2023-09-12T12:45:21;23.80;99.90
51841;DHT22;37888;53.246;6.658;2023-09-12T12:47:58;23.80;99.90
51841;DHT22;37888;53.246;6.658;2023-09-12T12:50:27;23.70;99.90
51841;DHT22;37888;53.246;6.658;2023-09-12T12:52:53;23.60;99.90
51841;DHT22;37888;53.246;6.658;2023-09-12T12:55:21;23.10;99.90
51841;DHT22;37888;53.246;6.658;2023-09-12T12:57:48;22.60;99.90
51841;DHT22;37888;53.246;6.658;2023-09-12T13:00:14;22.10;99.90
51841;DHT22;37888;53.246;6.658;2023-09-12T13:02:41;21.40;99.90
51841;DHT22;37888;53.246;6.658;2023-09-12T13:05:28;21.20;99.90
51841;DHT22;37888;53.246;6.658;2023-09-12T13:07:55;21.00;99.90
51841;DHT22;37888;53.246;6.658;2023-09-12T13:10:21;20.80;99.90
51841;DHT22;37888;53.246;6.658;2023-09-12T13:12:48;20.60;99.90
51841;DHT22;37888;53.246;6.658;2023-09-12T13:15:14;20.60;99.90
51841;DHT22;37888;53.246;6.658;2023-09-12T13:17:41;20.40;99.90
51841;DHT22;37888;53.246;6.658;2023-09-12T13:20:08;20.40;99.90
51841;DHT22;37888;53.246;6.658;2023-09-12T13:22:37;20.30;99.90
51841;DHT22;37888;53.246;6.658;2023-09-12T13:25:04;20.30;99.90
51841;DHT22;37888;53.246;6.658;2023-09-12T13:27:30;20.20;99.90
51841;DHT22;37888;53.246;6.658;2023-09-12T13:29:55;20.30;99.90
51841;DHT22;37888;53.246;6.658;2023-09-12T13:32:21;20.30;99.90
51841;DHT22;37888;53.246;6.658;2023-09-12T13:34:47;20.30;99.90
51841;DHT22;37888;53.246;6.658;2023-09-12T13:37:13;20.30;99.90
51841;DHT22;37888;53.246;6.658;2023-09-12T13:39:42;20.30;99.90
51841;DHT22;37888;53.246;6.658;2023-09-12T13:42:14;20.40;99.90
51841;DHT22;37888;53.246;6.658;2023-09-12T13:44:44;20.40;99.90
51841;DHT22;37888;53.246;6.658;2023-09-12T13:47:10;20.70;99.90
51841;DHT22;37888;53.246;6.658;2023-09-12T13:49:36;20.90;99.90
51841;DHT22;37888;53.246;6.658;2023-09-12T13:52:02;21.00;99.90
51841;DHT22;37888;53.246;6.658;2023-09-12T13:54:27;21.20;99.90
51841;DHT22;37888;53.246;6.658;2023-09-12T13:56:53;21.30;99.90
51841;DHT22;37888;53.246;6.658;2023-09-12T13:59:19;21.40;99.90
51841;DHT22;37888;53.246;6.658;2023-09-12T14:01:48;21.40;99.90
51841;DHT22;37888;53.246;6.658;2023-09-12T14:04:13;21.40;99.90
51841;DHT22;37888;53.246;6.658;2023-09-12T14:06:40;21.40;99.90
51841;DHT22;37888;53.246;6.658;2023-09-12T14:09:06;21.40;99.90
51841;DHT22;37888;53.246;6.658;2023-09-12T14:11:31;21.40;99.90
51841;DHT22;37888;53.246;6.658;2023-09-12T14:13:57;21.40;99.90
51841;DHT22;37888;53.246;6.658;2023-09-12T14:16:23;21.40;99.90
51841;DHT22;37888;53.246;6.658;2023-09-12T14:18:48;21.50;99.90
51841;DHT22;37888;53.246;6.658;2023-09-12T14:21:14;21.50;99.90
51841;DHT22;37888;53.246;6.658;2023-09-12T14:23:40;21.50;99.90
51841;DHT22;37888;53.246;6.658;2023-09-12T14:26:06;21.60;99.90
51841;DHT22;37888;53.246;6.658;2023-09-12T14:28:31;21.60;99.90
51841;DHT22;37888;53.246;6.658;2023-09-12T14:31:00;21.70;99.90
51841;DHT22;37888;53.246;6.658;2023-09-12T14:33:25;21.70;99.90
51841;DHT22;37888;53.246;6.658;2023-09-12T14:35:51;21.70;99.90
51841;DHT22;37888;53.246;6.658;2023-09-12T14:38:17;21.60;99.90
51841;DHT22;37888;53.246;6.658;2023-09-12T14:40:43;21.60;99.90
51841;DHT22;37888;53.246;6.658;2023-09-12T14:43:08;21.60;99.90
51841;DHT22;37888;53.246;6.658;2023-09-12T14:45:34;21.60;99.90
51841;DHT22;37888;53.246;6.658;2023-09-12T14:48:00;21.60;99.90
51841;DHT22;37888;53.246;6.658;2023-09-12T14:50:25;21.60;99.90
51841;DHT22;37888;53.246;6.658;2023-09-12T14:52:55;21.60;99.90
51841;DHT22;37888;53.246;6.658;2023-09-12T14:55:21;21.60;99.90
51841;DHT22;37888;53.246;6.658;2023-09-12T14:57:47;21.70;99.90
51841;DHT22;37888;53.246;6.658;2023-09-12T15:00:14;21.60;99.90
51841;DHT22;37888;53.246;6.658;2023-09-12T15:02:40;21.60;99.90
51841;DHT22;37888;53.246;6.658;2023-09-12T15:05:07;21.60;99.90
51841;DHT22;37888;53.246;6.658;2023-09-12T15:07:33;21.50;99.90
51841;DHT22;37888;53.246;6.658;2023-09-12T15:10:04;21.50;99.90
51841;DHT22;37888;53.246;6.658;2023-09-12T15:12:33;21.50;99.90
51841;DHT22;37888;53.246;6.658;2023-09-12T15:14:59;21.50;99.90
51841;DHT22;37888;53.246;6.658;2023-09-12T15:17:25;21.50;99.90
51841;DHT22;37888;53.246;6.658;2023-09-12T15:19:50;21.40;99.90
51841;DHT22;37888;53.246;6.658;2023-09-12T15:22:16;21.40;99.90
51841;DHT22;37888;53.246;6.658;2023-09-12T15:24:52;21.30;99.90
51841;DHT22;37888;53.246;6.658;2023-09-12T15:27:21;21.20;99.90
51841;DHT22;37888;53.246;6.658;2023-09-12T15:33:43;21.30;99.90
51841;DHT22;37888;53.246;6.658;2023-09-12T15:36:09;21.30;99.90
51841;DHT22;37888;53.246;6.658;2023-09-12T15:38:35;21.20;99.90
51841;DHT22;37888;53.246;6.658;2023-09-12T15:41:00;21.20;99.90
51841;DHT22;37888;53.246;6.658;2023-09-12T15:43:28;21.20;99.90
51841;DHT22;37888;53.246;6.658;2023-09-12T15:45:57;21.10;99.90
51841;DHT22;37888;53.246;6.658;2023-09-12T15:48:23;21.10;99.90
51841;DHT22;37888;53.246;6.658;2023-09-12T15:50:48;21.10;99.90
51841;DHT22;37888;53.246;6.658;2023-09-12T15:53:15;21.10;99.90
51841;DHT22;37888;53.246;6.658;2023-09-12T15:55:40;21.10;99.90
51841;DHT22;37888;53.246;6.658;2023-09-12T15:58:06;21.10;99.90
51841;DHT22;37888;53.246;6.658;2023-09-12T16:00:32;21.10;99.90
51841;DHT22;37888;53.246;6.658;2023-09-12T16:02:58;21.00;99.90
51841;DHT22;37888;53.246;6.658;2023-09-12T16:07:49;20.80;99.90
51841;DHT22;37888;53.246;6.658;2023-09-12T16:10:16;20.70;99.90
51841;DHT22;37888;53.246;6.658;2023-09-12T16:12:41;20.70;99.90